Time;durP1;ratioP1;P1;durP2;ratioP2;P2;SDS_P1;SDS_P2;PMS_P1;PMS_P2;Temp;Humidity;BMP_temperature;BMP_pressure;BME280_temperature;BME280_humidity;BME280_pressure;Samples;Min_cycle;Max_cycle;Signal;HPM_P1;HPM_P2
2023/05/05 00:01:01;;;;;;;6.47;4.28;;;15.20;99.90;;;14.16;100.00;97613.66;4990182;28;20737;-78
2023/05/05 00:03:28;;;;;;;4.97;3.72;;;15.00;99.90;;;14.18;100.00;97620.47;4973422;28;20100;-77
2023/05/05 00:05:56;;;;;;;5.28;3.63;;;14.90;99.90;;;13.88;100.00;97623.03;4988887;28;20507;-77
2023/05/05 00:08:23;;;;;;;6.50;4.07;;;14.70;99.90;;;13.75;100.00;97627.22;4985528;28;20047;-77
2023/05/05 00:10:52;;;;;;;6.45;3.53;;;14.70;99.90;;;13.79;100.00;97626.97;4989760;28;20510;-77
2023/05/05 00:13:20;;;;;;;6.35;3.80;;;14.80;99.90;;;13.81;100.00;97622.53;4985582;28;20177;-77
2023/05/05 00:15:49;;;;;;;6.88;4.07;;;14.80;99.90;;;13.83;100.00;97629.44;4991786;28;20046;-77
2023/05/05 00:18:17;;;;;;;6.93;4.30;;;14.80;99.90;;;13.86;100.00;97626.66;4987670;28;20137;-77
2023/05/05 00:20:46;;;;;;;5.43;4.00;;;14.80;99.90;;;13.91;100.00;97622.00;4986170;28;20077;-77
2023/05/05 00:23:15;;;;;;;7.78;3.95;;;14.80;99.90;;;13.91;100.00;97625.50;4984748;28;20057;-77
2023/05/05 00:25:42;;;;;;;6.35;4.18;;;14.80;99.90;;;13.96;100.00;97625.22;4986680;28;20056;-77
2023/05/05 00:28:09;;;;;;;8.80;3.90;;;14.80;99.90;;;13.96;100.00;97620.00;4982902;28;20046;-77
2023/05/05 00:30:39;;;;;;;4.93;3.50;;;14.90;99.90;;;14.00;100.00;97618.88;4984834;28;20050;-77
2023/05/05 00:33:06;;;;;;;5.72;3.78;;;14.90;99.90;;;14.02;100.00;97619.66;4984957;28;20491;-77
2023/05/05 00:35:34;;;;;;;9.05;4.53;;;14.90;99.90;;;13.97;100.00;97624.28;4987710;28;20448;-77
2023/05/05 00:38:03;;;;;;;5.78;4.03;;;14.90;99.90;;;13.92;100.00;97628.94;4987393;28;20051;-77
2023/05/05 00:40:31;;;;;;;8.10;4.03;;;14.80;99.90;;;13.89;100.00;97629.09;4988944;28;20507;-77
2023/05/05 00:42:58;;;;;;;6.18;4.68;;;14.80;99.90;;;13.93;100.00;97625.38;4988697;28;20502;-77
2023/05/05 00:45:26;;;;;;;7.00;4.57;;;14.80;99.90;;;13.75;100.00;97629.84;4988216;28;20051;-77
2023/05/05 00:48:00;;;;;;;5.35;3.92;;;14.90;99.90;;;13.75;100.00;97630.72;4963764;28;20049;-77
2023/05/05 00:50:32;;;;;;;9.48;4.40;;;14.70;99.90;;;13.86;100.00;97634.47;4967005;28;20050;-78
2023/05/05 00:53:03;;;;;;;7.13;4.75;;;14.80;99.90;;;13.76;100.00;97634.97;4993982;28;20042;-77
2023/05/05 00:55:33;;;;;;;7.43;4.55;;;14.80;99.90;;;13.75;100.00;97633.31;4971536;28;20057;-78
2023/05/05 00:58:01;;;;;;;11.82;4.90;;;14.80;99.90;;;13.83;100.00;97639.88;4971411;28;20048;-77
2023/05/05 01:00:30;;;;;;;7.53;4.65;;;14.80;99.90;;;13.85;100.00;97631.03;4989270;28;20050;-77
2023/05/05 01:02:58;;;;;;;7.80;3.92;;;14.80;99.90;;;13.96;100.00;97625.22;4986614;28;20060;-78
2023/05/05 01:05:33;;;;;;;8.40;4.28;;;14.80;99.90;;;14.04;100.00;97633.47;4986611;28;21803;-77
2023/05/05 01:08:31;;;;;;;9.57;4.30;;;14.80;99.90;;;13.97;100.00;97627.72;4989324;28;20478;-77
2023/05/05 01:11:09;;;;;;;6.97;4.00;;;14.80;99.90;;;14.04;100.00;97632.63;4991595;28;20101;-78
2023/05/05 01:13:57;;;;;;;8.52;4.13;;;14.80;99.90;;;14.01;100.00;97631.03;4989921;28;20069;-77
2023/05/05 01:16:32;;;;;;;8.20;4.15;;;14.90;99.90;;;14.13;100.00;97634.72;4992381;28;20062;-77
2023/05/05 01:19:24;;;;;;;6.32;5.18;;;14.80;99.90;;;13.97;100.00;97635.56;4973462;28;20105;-77
2023/05/05 01:21:59;;;;;;;8.75;4.40;;;14.80;99.90;;;14.07;100.00;97637.66;4981830;28;20053;-77
2023/05/05 01:24:57;;;;;;;6.85;3.88;;;14.80;99.90;;;14.01;100.00;97634.47;4991077;28;20039;-78
2023/05/05 01:27:44;;;;;;;4.75;3.95;;;14.80;99.90;;;14.05;100.00;97635.16;4997240;28;20068;-78
2023/05/05 01:30:40;;;;;;;8.57;4.00;;;14.90;99.90;;;14.15;100.00;97638.91;4971978;28;20522;-77
2023/05/05 01:33:13;;;;;;;6.40;4.32;;;14.90;99.90;;;14.11;100.00;97641.78;4996916;28;20100;-77
2023/05/05 01:35:49;;;;;;;5.95;4.57;;;14.90;99.90;;;14.00;100.00;97642.38;4976976;28;20046;-78
2023/05/05 01:38:23;;;;;;;6.68;4.43;;;14.90;99.90;;;13.90;100.00;97644.66;4991196;28;20236;-78
2023/05/05 01:41:17;;;;;;;7.00;4.15;;;14.90;99.90;;;13.85;100.00;97645.84;4977395;28;20050;-78
2023/05/05 01:43:49;;;;;;;7.28;4.28;;;14.80;99.90;;;13.94;100.00;97654.00;4975524;28;20050;-78
2023/05/05 01:46:18;;;;;;;7.63;4.30;;;14.80;99.90;;;13.94;100.00;97659.22;4987959;28;20054;-77
2023/05/05 01:48:47;;;;;;;7.97;4.50;;;14.80;99.90;;;13.93;100.00;97647.09;4973505;28;20467;-78
2023/05/05 01:51:18;;;;;;;6.75;4.50;;;14.90;99.90;;;13.99;100.00;97653.75;4984047;28;20482;-78
2023/05/05 01:53:51;;;;;;;5.53;3.65;;;14.90;99.90;;;13.98;100.00;97652.94;4971889;28;20054;-78
2023/05/05 01:56:22;;;;;;;7.15;4.25;;;14.90;99.90;;;13.97;100.00;97658.22;4967505;28;20065;-77
2023/05/05 01:58:50;;;;;;;5.45;4.50;;;14.90;99.90;;;13.65;100.00;97659.97;4990830;28;20054;-77
2023/05/05 02:01:20;;;;;;;6.28;4.53;;;14.80;99.90;;;13.52;100.00;97660.59;5001753;28;20054;-78
2023/05/05 02:03:51;;;;;;;6.72;4.50;;;14.60;99.90;;;13.62;100.00;97657.53;4992949;28;20098;-78
2023/05/05 02:06:20;;;;;;;7.68;4.63;;;14.60;99.90;;;13.60;100.00;97666.28;4973801;28;20088;-77
2023/05/05 02:08:49;;;;;;;6.22;4.18;;;14.50;99.90;;;13.50;100.00;97669.44;4987830;28;20050;-78
2023/05/05 02:11:17;;;;;;;6.93;4.28;;;14.50;99.90;;;13.64;100.00;97674.78;4987636;28;20063;-77
2023/05/05 02:13:46;;;;;;;7.22;4.88;;;14.50;99.90;;;13.52;100.00;97676.25;4966342;28;20050;-78
2023/05/05 02:16:14;;;;;;;7.03;4.78;;;14.50;99.90;;;13.27;100.00;97686.25;4992568;28;20050;-78
2023/05/05 02:18:44;;;;;;;6.03;5.00;;;14.30;99.90;;;13.01;100.00;97688.44;4994330;28;20054;-78
2023/05/05 02:21:13;;;;;;;8.18;5.05;;;14.10;99.90;;;12.88;100.00;97695.19;4966244;28;20478;-78
2023/05/05 02:23:40;;;;;;;8.98;4.60;;;14.00;99.90;;;13.18;100.00;97701.47;4971969;28;20125;-77
2023/05/05 02:26:10;;;;;;;7.50;4.40;;;14.00;99.90;;;13.16;100.00;97705.91;4986771;28;20050;-78
2023/05/05 02:28:47;;;;;;;6.47;4.60;;;14.10;99.90;;;13.40;100.00;97697.78;4975591;28;20056;-77
2023/05/05 02:31:18;;;;;;;8.50;4.78;;;14.20;99.90;;;13.56;100.00;97706.47;4993050;28;20621;-78
2023/05/05 02:33:48;;;;;;;6.82;4.35;;;14.30;99.90;;;13.60;100.00;97713.22;4978178;28;20129;-78
2023/05/05 02:36:21;;;;;;;11.05;5.38;;;14.40;99.90;;;13.37;100.00;97705.75;4993388;28;20050;-77
2023/05/05 02:38:55;;;;;;;6.85;5.05;;;14.30;99.90;;;13.13;100.00;97703.44;4967185;28;20061;-78
2023/05/05 02:41:25;;;;;;;10.70;5.10;;;14.00;99.90;;;13.00;100.00;97709.34;4973531;28;20050;-78
2023/05/05 02:43:55;;;;;;;7.75;5.18;;;13.90;99.90;;;13.16;100.00;97724.16;4972218;28;20052;-78
2023/05/05 02:46:22;;;;;;;6.07;4.38;;;13.90;99.90;;;13.31;100.00;97732.13;5001677;28;20054;-77
2023/05/05 02:48:49;;;;;;;7.72;4.97;;;14.00;99.90;;;13.42;100.00;97734.19;4996452;28;20050;-78
2023/05/05 02:51:16;;;;;;;9.32;4.90;;;14.20;99.90;;;13.50;100.00;97735.50;4990929;28;20055;-77
2023/05/05 02:53:43;;;;;;;8.35;5.32;;;14.30;99.90;;;13.45;100.00;97737.47;4992933;28;20057;-78
2023/05/05 02:56:39;;;;;;;8.38;5.03;;;14.20;99.90;;;13.35;100.00;97744.09;5011455;28;20089;-78
2023/05/05 02:59:46;;;;;;;6.65;4.72;;;14.00;99.90;;;13.24;100.00;97744.59;4989547;28;20053;-77
2023/05/05 03:03:03;;;;;;;8.85;4.63;;;13.80;99.90;;;13.24;100.00;97738.56;4994685;28;20508;-77
2023/05/05 03:05:44;;;;;;;7.55;5.22;;;13.70;99.90;;;13.22;100.00;97743.00;4993496;28;20050;-78
2023/05/05 03:08:34;;;;;;;9.07;5.82;;;13.70;99.90;;;13.04;100.00;97750.81;4971505;28;20431;-77
2023/05/05 03:11:26;;;;;;;10.00;6.32;;;13.60;99.90;;;13.00;100.00;97738.88;4976828;28;20050;-77
2023/05/05 03:14:20;;;;;;;8.50;6.55;;;13.60;99.90;;;12.92;100.00;97746.22;4974643;28;20050;-77
2023/05/05 03:16:53;;;;;;;9.15;5.93;;;13.80;99.90;;;12.92;100.00;97759.25;4987635;28;20051;-78
2023/05/05 03:19:22;;;;;;;10.15;6.55;;;13.70;99.90;;;12.83;100.00;97763.13;4990710;28;20676;-78
2023/05/05 03:21:49;;;;;;;10.68;6.75;;;13.70;99.90;;;12.73;100.00;97762.75;4991583;28;20069;-77
2023/05/05 03:24:19;;;;;;;9.32;6.70;;;13.70;99.90;;;12.72;100.00;97766.25;4986681;28;20054;-78
2023/05/05 03:26:48;;;;;;;9.00;6.25;;;13.70;99.90;;;12.89;100.00;97775.88;4988702;28;20161;-78
2023/05/05 03:29:16;;;;;;;10.27;6.07;;;13.80;99.90;;;12.92;100.00;97786.13;4988346;28;20124;-77
2023/05/05 03:31:45;;;;;;;9.73;6.20;;;13.60;99.90;;;12.98;100.00;97777.19;4987943;28;20059;-78
2023/05/05 03:34:13;;;;;;;10.32;6.22;;;13.50;99.90;;;12.95;100.00;97779.94;4993064;28;20053;-77
2023/05/05 03:36:40;;;;;;;11.23;6.93;;;13.50;99.90;;;12.84;100.00;97784.81;4966786;28;20050;-78
2023/05/05 03:39:07;;;;;;;9.65;6.60;;;13.50;99.90;;;12.85;100.00;97784.75;4970930;28;20059;-77
2023/05/05 03:41:34;;;;;;;11.20;7.55;;;13.60;99.90;;;12.90;100.00;97782.75;4984695;28;20050;-78
2023/05/05 03:44:04;;;;;;;10.48;8.05;;;13.60;99.90;;;12.98;100.00;97779.78;4990568;28;20097;-77
2023/05/05 03:46:32;;;;;;;9.25;7.55;;;13.50;99.90;;;12.89;100.00;97778.47;4978835;28;20133;-77
2023/05/05 03:48:59;;;;;;;12.43;8.07;;;13.50;99.90;;;12.73;100.00;97790.56;4989077;28;20499;-77
2023/05/05 03:51:26;;;;;;;18.60;14.13;;;13.60;99.90;;;12.67;100.00;97794.28;4988494;28;20062;-78
2023/05/05 03:53:53;;;;;;;17.65;13.20;;;13.60;99.90;;;12.63;100.00;97805.75;4990564;28;20053;-78
2023/05/05 03:56:21;;;;;;;17.52;10.63;;;13.60;99.90;;;12.61;100.00;97806.75;4967789;28;20054;-77
2023/05/05 03:58:48;;;;;;;12.38;9.25;;;13.50;99.90;;;12.61;100.00;97809.34;4975276;28;20062;-77
2023/05/05 04:01:15;;;;;;;11.48;8.18;;;13.50;99.90;;;12.59;100.00;97819.00;4988084;28;20054;-78
2023/05/05 04:03:43;;;;;;;10.68;8.55;;;13.50;99.90;;;12.68;100.00;97818.56;4991967;28;20051;-77
2023/05/05 04:06:10;;;;;;;18.88;12.82;;;13.50;99.90;;;12.72;100.00;97813.13;4992077;28;20105;-77
2023/05/05 04:08:38;;;;;;;15.32;11.57;;;13.40;99.90;;;12.79;100.00;97820.66;4990900;28;20042;-77
2023/05/05 04:11:05;;;;;;;20.48;12.40;;;13.40;99.90;;;12.75;100.00;97817.38;5007282;28;20049;-77
2023/05/05 04:13:32;;;;;;;17.42;10.18;;;13.30;99.90;;;12.62;100.00;97821.47;4991431;28;20060;-77
2023/05/05 04:15:59;;;;;;;12.23;9.38;;;13.30;99.90;;;12.49;100.00;97824.63;4985633;28;20049;-78
2023/05/05 04:18:26;;;;;;;11.02;7.63;;;13.30;99.90;;;12.54;100.00;97820.06;4995728;28;20447;-78
2023/05/05 04:20:54;;;;;;;12.30;8.32;;;13.40;99.90;;;12.53;100.00;97826.19;4995267;28;20052;-77
2023/05/05 04:23:21;;;;;;;9.77;7.45;;;13.40;99.90;;;12.63;100.00;97825.75;4993397;28;20061;-78
2023/05/05 04:25:48;;;;;;;12.63;9.25;;;13.50;99.90;;;12.56;100.00;97827.78;4988048;28;20060;-78
2023/05/05 04:28:15;;;;;;;13.38;10.43;;;13.50;99.90;;;12.53;100.00;97826.19;4990407;28;20038;-77
2023/05/05 04:30:46;;;;;;;8.77;7.28;;;13.50;99.90;;;12.51;100.00;97829.78;4990412;28;20719;-77
2023/05/05 04:33:13;;;;;;;8.32;7.28;;;13.50;99.90;;;12.49;100.00;97835.03;4980463;28;20054;-78
2023/05/05 04:35:40;;;;;;;11.77;7.00;;;13.50;99.90;;;12.57;100.00;97834.72;4978527;28;20043;-78
2023/05/05 04:38:11;;;;;;;10.32;6.63;;;13.50;99.90;;;12.66;100.00;97831.69;4972560;28;20054;-77
2023/05/05 04:40:41;;;;;;;8.05;6.18;;;13.50;99.90;;;12.80;100.00;97824.97;4975182;28;20065;-77
2023/05/05 04:43:08;;;;;;;10.27;6.72;;;13.60;99.90;;;12.79;100.00;97825.88;4957956;28;20416;-77
2023/05/05 04:45:35;;;;;;;8.30;6.60;;;13.60;99.90;;;12.76;100.00;97827.72;4971573;28;20055;-78
2023/05/05 04:48:04;;;;;;;9.20;6.93;;;13.60;99.90;;;12.73;100.00;97829.63;4968893;28;20097;-77
2023/05/05 04:50:32;;;;;;;9.63;6.75;;;13.60;99.90;;;12.68;100.00;97832.44;4964071;28;20061;-77
2023/05/05 04:52:59;;;;;;;8.13;7.00;;;13.60;99.90;;;12.72;100.00;97843.56;4965380;28;20050;-77
2023/05/05 04:55:26;;;;;;;9.93;6.28;;;13.60;99.90;;;12.71;100.00;97844.47;4974382;28;20670;-77
2023/05/05 04:57:54;;;;;;;9.60;7.30;;;13.70;99.90;;;12.65;100.00;97848.19;4949453;28;20520;-77
2023/05/05 05:00:22;;;;;;;8.00;5.95;;;13.60;99.90;;;12.80;100.00;97844.03;4963559;28;20087;-77
2023/05/05 05:02:49;;;;;;;7.45;5.30;;;13.70;99.90;;;13.01;100.00;97843.94;4964783;28;20054;-77
2023/05/05 05:05:16;;;;;;;7.00;6.10;;;13.70;99.90;;;13.03;100.00;97842.09;4962781;28;20056;-78
2023/05/05 05:07:44;;;;;;;8.55;6.30;;;13.80;99.90;;;13.17;100.00;97842.28;4966486;28;20133;-77
2023/05/05 05:10:11;;;;;;;7.55;6.00;;;13.80;99.90;;;13.15;100.00;97837.13;4965767;28;20062;-76
2023/05/05 05:12:39;;;;;;;7.47;5.57;;;13.80;99.90;;;13.38;100.00;97837.78;4977716;28;20055;-77
2023/05/05 05:15:07;;;;;;;9.88;5.70;;;13.80;99.90;;;13.35;100.00;97835.34;4962534;28;20057;-76
2023/05/05 05:17:34;;;;;;;6.72;5.00;;;13.80;99.90;;;13.51;100.00;97844.09;4954941;28;20052;-76
2023/05/05 05:20:03;;;;;;;9.18;5.88;;;;;;;13.69;100.00;97836.25;4975231;28;20058;-76
2023/05/05 05:22:31;;;;;;;9.20;4.57;;;13.90;99.90;;;13.85;100.00;97834.56;4973030;28;20055;-77
2023/05/05 05:24:58;;;;;;;9.20;4.80;;;14.00;99.90;;;13.95;100.00;97833.13;4959212;28;20138;-77
2023/05/05 05:27:25;;;;;;;9.98;5.40;;;14.10;99.90;;;14.16;100.00;97833.81;4977461;28;20047;-77
2023/05/05 05:29:52;;;;;;;7.43;4.78;;;14.10;99.90;;;14.28;100.00;97826.22;4965742;28;20047;-77
2023/05/05 05:32:21;;;;;;;6.05;4.03;;;14.20;99.90;;;14.43;100.00;97818.38;4967575;28;20046;-76
2023/05/05 05:34:48;;;;;;;5.57;4.50;;;14.40;99.90;;;14.62;100.00;97815.66;4970579;28;20086;-77
2023/05/05 05:37:15;;;;;;;5.95;4.50;;;14.60;99.90;;;14.73;100.00;97819.44;4955653;28;20074;-77
2023/05/05 05:39:43;;;;;;;8.45;4.65;;;14.70;99.90;;;14.69;100.00;97805.72;4973264;28;20554;-77
2023/05/05 05:42:10;;;;;;;4.53;3.83;;;14.80;99.90;;;14.82;100.00;97809.34;4973648;28;20531;-77
2023/05/05 05:44:37;;;;;;;6.28;4.47;;;14.90;99.90;;;14.90;100.00;97810.69;4965796;28;20573;-77
2023/05/05 05:47:04;;;;;;;6.50;4.13;;;;;;;14.91;100.00;97813.19;4964669;28;20503;-76
2023/05/05 05:49:31;;;;;;;5.93;3.92;;;15.00;99.90;;;15.00;100.00;97814.44;4966689;28;20193;-76
2023/05/05 05:51:59;;;;;;;9.82;4.00;;;15.00;99.90;;;15.04;100.00;97816.78;4969392;28;20558;-77
2023/05/05 05:54:26;;;;;;;7.82;3.42;;;15.10;99.90;;;15.09;100.00;97816.53;4971618;28;20050;-77
2023/05/05 05:56:53;;;;;;;8.23;4.38;;;15.10;99.90;;;14.95;100.00;97798.19;4970301;28;20038;-77
2023/05/05 05:59:20;;;;;;;8.45;4.22;;;15.20;99.90;;;15.24;100.00;97806.97;4966524;28;20133;-78
2023/05/05 06:01:47;;;;;;;5.47;3.97;;;15.20;99.90;;;15.08;100.00;97798.34;4962276;28;20043;-76
2023/05/05 06:04:14;;;;;;;8.85;4.57;;;15.40;99.90;;;15.20;100.00;97811.53;4963090;28;20066;-77
2023/05/05 06:06:41;;;;;;;5.95;3.88;;;15.40;99.90;;;15.17;100.00;97811.72;4972833;28;20075;-76
2023/05/05 06:09:09;;;;;;;10.57;3.78;;;15.50;99.90;;;15.49;100.00;97801.16;4972397;28;20046;-77
2023/05/05 06:11:38;;;;;;;5.80;3.47;;;15.70;99.90;;;15.55;100.00;97806.00;4971946;28;20128;-77
2023/05/05 06:14:05;;;;;;;5.63;3.45;;;15.80;99.90;;;15.74;100.00;97803.19;4970039;28;20125;-77
2023/05/05 06:16:32;;;;;;;5.35;2.95;;;15.90;99.90;;;15.88;100.00;97787.50;4968492;28;20059;-76
2023/05/05 06:19:00;;;;;;;7.85;3.47;;;16.10;99.90;;;16.05;100.00;97786.44;4951120;28;20132;-77
2023/05/05 06:21:27;;;;;;;5.90;3.38;;;16.20;99.90;;;16.06;100.00;97779.47;4971958;28;20057;-77
2023/05/05 06:23:55;;;;;;;6.47;3.35;;;16.20;99.90;;;15.91;100.00;97783.00;4965936;28;20051;-77
2023/05/05 06:26:22;;;;;;;9.00;3.70;;;16.30;99.90;;;15.75;100.00;97783.09;4969521;28;20051;-77
2023/05/05 06:28:49;;;;;;;8.55;3.47;;;16.30;99.90;;;15.92;100.00;97777.69;4963118;28;20057;-77
2023/05/05 06:31:17;;;;;;;7.93;3.15;;;16.10;99.90;;;15.87;100.00;97777.09;4954627;28;20097;-77
2023/05/05 06:33:44;;;;;;;7.28;3.88;;;16.10;99.90;;;15.76;100.00;97783.00;4966821;28;20055;-77
2023/05/05 06:36:11;;;;;;;8.70;3.58;;;16.20;99.90;;;16.07;100.00;97791.59;4967036;28;20061;-77
2023/05/05 06:38:38;;;;;;;7.65;3.13;;;16.30;99.90;;;16.00;100.00;97780.66;4955557;28;20046;-77
2023/05/05 06:41:05;;;;;;;6.78;3.05;;;16.30;99.90;;;16.09;100.00;97784.50;4967939;28;20084;-76
2023/05/05 06:43:33;;;;;;;4.38;3.47;;;16.30;99.90;;;16.06;100.00;97782.91;4964483;28;20047;-77
2023/05/05 06:46:00;;;;;;;9.25;3.17;;;16.30;99.90;;;16.13;100.00;97775.53;4964258;28;20051;-77
2023/05/05 06:48:27;;;;;;;5.65;3.50;;;16.40;99.90;;;15.98;100.00;97771.22;4969750;28;20435;-77
2023/05/05 06:50:55;;;;;;;5.65;3.70;;;16.40;99.90;;;16.01;100.00;97773.63;4948740;28;20043;-77
2023/05/05 06:53:22;;;;;;;5.25;3.10;;;16.30;99.90;;;16.49;100.00;97779.41;4968584;28;20065;-77
2023/05/05 06:55:50;;;;;;;6.13;3.63;;;16.40;99.90;;;16.41;100.00;97764.13;4967244;28;20110;-77
2023/05/05 06:58:17;;;;;;;5.47;3.50;;;16.50;99.90;;;16.44;100.00;97766.56;4968229;28;20066;-77
2023/05/05 07:00:44;;;;;;;6.32;3.22;;;16.40;99.90;;;16.59;100.00;97758.69;4966601;28;20063;-77
2023/05/05 07:03:12;;;;;;;7.88;3.22;;;16.60;99.90;;;16.44;100.00;97756.06;4945612;28;20042;-77
2023/05/05 07:05:39;;;;;;;7.28;3.35;;;16.70;99.90;;;16.23;100.00;97773.16;4969360;28;20605;-77
2023/05/05 07:08:07;;;;;;;8.60;3.47;;;16.80;99.90;;;16.49;100.00;97767.13;4965625;28;20047;-76
2023/05/05 07:10:35;;;;;;;6.82;3.50;;;16.70;99.90;;;16.19;100.00;97772.50;4962624;28;20050;-77
2023/05/05 07:13:03;;;;;;;5.55;3.17;;;16.70;99.90;;;16.41;100.00;97774.63;4975746;28;20526;-77
2023/05/05 07:15:30;;;;;;;7.63;3.22;;;16.70;99.90;;;16.51;100.00;97770.50;4976195;28;20050;-77
2023/05/05 07:17:57;;;;;;;6.32;3.38;;;16.80;99.90;;;16.78;100.00;97761.78;4980369;28;20050;-77
2023/05/05 07:20:25;;;;;;;11.45;3.17;;;16.80;99.90;;;16.67;100.00;97748.53;4969952;28;20054;-77
2023/05/05 07:22:53;;;;;;;6.60;3.60;;;16.80;99.90;;;16.77;100.00;97754.88;4971551;28;20085;-77
2023/05/05 07:25:20;;;;;;;7.20;3.20;;;16.90;99.90;;;16.68;100.00;97765.94;4963764;28;20061;-77
2023/05/05 07:27:47;;;;;;;5.82;3.40;;;16.80;99.90;;;16.81;100.00;97760.78;4969405;28;20054;-77
2023/05/05 07:30:14;;;;;;;6.35;3.30;;;16.80;99.90;;;17.11;100.00;97750.06;4958407;28;20066;-77
2023/05/05 07:32:45;;;;;;;6.88;3.28;;;17.00;99.90;;;16.97;100.00;97748.38;4971486;28;20548;-77
2023/05/05 07:35:13;;;;;;;5.43;2.53;;;17.20;99.90;;;17.42;100.00;97751.47;4972888;28;20212;-77
2023/05/05 07:37:41;;;;;;;5.65;2.78;;;17.20;99.90;;;17.64;100.00;97734.25;4973700;28;20137;-77
2023/05/05 07:40:10;;;;;;;6.22;2.83;;;17.50;99.90;;;17.67;100.00;97741.91;4957783;28;20051;-77
2023/05/05 07:42:37;;;;;;;6.68;2.42;;;17.80;99.90;;;17.96;100.00;97735.50;4968188;28;20046;-77
2023/05/05 07:45:06;;;;;;;6.80;2.75;;;17.80;99.90;;;17.75;100.00;97737.00;4950857;28;20127;-77
2023/05/05 07:47:33;;;;;;;4.90;2.42;;;17.90;99.90;;;17.87;100.00;97741.41;4972159;28;20117;-76
2023/05/05 07:50:00;;;;;;;3.83;1.70;;;18.10;99.90;;;18.22;100.00;97738.09;4952736;28;20046;-78
2023/05/05 07:52:27;;;;;;;4.75;2.65;;;18.40;99.90;;;18.53;100.00;97738.53;4974092;28;20500;-77
2023/05/05 07:55:13;;;;;;;3.17;1.23;;;18.70;99.90;;;18.31;100.00;97726.09;4956733;28;20051;-77
2023/05/05 07:57:42;;;;;;;4.82;1.65;;;18.70;99.90;;;18.79;100.00;97729.63;4970514;28;20082;-77
2023/05/05 08:00:12;;;;;;;5.22;1.48;;;18.90;99.90;;;18.72;100.00;97735.38;4965434;28;20074;-77
2023/05/05 08:02:40;;;;;;;12.75;1.90;;;19.00;99.90;;;18.69;100.00;97728.56;4971256;28;20519;-77
2023/05/05 08:05:07;;;;;;;3.13;1.17;;;19.20;99.90;;;18.79;100.00;97726.13;4951031;28;20134;-77
2023/05/05 08:07:39;;;;;;;3.65;1.27;;;19.20;99.90;;;19.28;100.00;97721.66;4970303;28;20058;-77
2023/05/05 08:10:11;;;;;;;4.15;1.35;;;19.50;99.90;;;19.38;100.00;97723.44;4968917;28;20046;-77
2023/05/05 08:12:39;;;;;;;3.28;1.30;;;19.80;99.90;;;19.28;100.00;97716.38;4965032;28;20052;-77
2023/05/05 08:15:07;;;;;;;3.97;1.20;;;19.80;99.90;;;19.87;100.00;97712.75;4978494;28;20042;-77
2023/05/05 08:17:46;;;;;;;3.42;1.30;;;20.10;99.90;;;20.02;100.00;97717.63;4971844;28;20435;-77
2023/05/05 08:20:16;;;;;;;5.10;1.75;;;20.20;99.90;;;20.17;100.00;97728.78;4983859;28;20056;-78
2023/05/05 08:22:44;;;;;;;5.03;1.58;;;20.20;99.90;;;20.88;100.00;97726.56;4970690;28;20050;-77
2023/05/05 08:25:13;;;;;;;3.33;1.40;;;20.40;99.90;;;21.43;100.00;97713.25;4974558;28;20444;-77
2023/05/05 08:27:41;;;;;;;3.28;1.38;;;;;;;21.40;100.00;97715.28;4968213;28;20472;-77
2023/05/05 08:30:09;;;;;;;5.22;1.13;;;21.10;99.90;;;22.16;100.00;97705.22;4975518;28;20053;-77
2023/05/05 08:32:37;;;;;;;3.55;1.00;;;21.60;99.90;;;22.09;100.00;97698.78;4971709;28;20086;-77
2023/05/05 08:35:06;;;;;;;4.35;0.80;;;21.90;99.90;;;21.99;100.00;97700.59;4967945;28;20696;-77
2023/05/05 08:37:34;;;;;;;1.75;0.70;;;22.20;99.90;;;21.84;100.00;97697.47;4968295;28;20046;-78
2023/05/05 08:40:03;;;;;;;3.45;0.75;;;22.40;99.90;;;22.44;100.00;97693.06;4971591;28;20113;-78
2023/05/05 08:42:30;;;;;;;2.45;0.85;;;22.80;99.90;;;22.75;100.00;97677.06;4967751;28;20051;-78
2023/05/05 08:45:06;;;;;;;2.25;0.88;;;22.40;99.90;;;23.57;100.00;97683.66;4975491;28;20073;-78
2023/05/05 08:47:35;;;;;;;2.65;1.08;;;23.20;99.90;;;23.25;100.00;97681.38;4971863;28;20063;-78
2023/05/05 08:50:06;;;;;;;2.60;0.60;;;24.30;99.90;;;23.48;100.00;97682.72;4974576;28;20057;-78
2023/05/05 08:52:45;;;;;;;1.43;0.50;;;24.30;99.90;;;23.80;100.00;97685.00;4971556;28;20145;-78
2023/05/05 08:55:23;;;;;;;1.63;0.60;;;24.10;99.90;;;23.40;100.00;97682.59;4973968;28;20871;-78
2023/05/05 08:57:54;;;;;;;6.82;0.70;;;23.50;99.90;;;22.53;100.00;97679.03;4965681;28;20161;-78
2023/05/05 09:00:22;;;;;;;3.05;0.63;;;23.40;99.90;;;22.33;100.00;97679.97;4972047;28;20046;-78
2023/05/05 09:02:50;;;;;;;3.92;0.88;;;23.40;99.90;;;22.20;100.00;97680.19;4949729;28;20154;-78
2023/05/05 09:05:18;;;;;;;2.47;0.60;;;23.10;99.90;;;21.58;100.00;97678.59;4965387;28;20059;-78
2023/05/05 09:07:46;;;;;;;4.80;0.70;;;23.30;99.90;;;21.52;100.00;97682.56;4967884;28;20057;-78
2023/05/05 09:10:13;;;;;;;3.25;0.77;;;23.00;99.90;;;22.90;100.00;97677.50;4972271;28;20057;-78
2023/05/05 09:12:40;;;;;;;3.92;0.80;;;23.70;99.90;;;22.58;100.00;97683.03;4954766;28;20137;-78
2023/05/05 09:15:13;;;;;;;1.52;0.60;;;23.20;99.90;;;22.37;100.00;97684.00;4972538;28;20043;-78
2023/05/05 09:17:41;;;;;;;3.13;0.80;;;22.70;99.90;;;22.48;100.00;97683.03;4950116;28;20086;-78
2023/05/05 09:20:14;;;;;;;3.45;0.57;;;23.00;99.90;;;21.45;100.00;97679.63;4965174;28;20541;-78
2023/05/05 09:22:45;;;;;;;3.60;0.70;;;22.80;99.90;;;21.31;100.00;97680.75;4968920;28;20257;-78
2023/05/05 09:25:16;;;;;;;1.35;0.40;;;22.10;99.90;;;21.20;100.00;97688.75;4951611;28;20046;-78
2023/05/05 09:27:48;;;;;;;3.38;0.60;;;21.80;99.90;;;21.26;100.00;97692.69;4969206;28;20103;-79
2023/05/05 09:30:24;;;;;;;0.93;0.50;;;21.60;99.90;;;21.84;100.00;97686.88;4973964;28;20409;-78
2023/05/05 09:32:55;;;;;;;1.42;0.52;;;21.50;99.90;;;21.80;100.00;97696.03;4950276;28;20053;-78
2023/05/05 09:35:22;;;;;;;0.93;0.47;;;21.90;99.90;;;21.80;100.00;97690.75;4971918;28;20058;-77
2023/05/05 09:37:49;;;;;;;1.88;0.50;;;22.10;99.90;;;22.21;100.00;97691.59;4971374;28;20871;-78
2023/05/05 09:40:19;;;;;;;2.10;0.70;;;22.40;99.90;;;22.68;100.00;97689.19;4972717;28;20480;-79
2023/05/05 09:42:47;;;;;;;4.18;0.70;;;22.80;99.90;;;22.05;100.00;97692.09;4977768;28;20058;-78
2023/05/05 09:45:19;;;;;;;2.53;0.55;;;22.90;99.90;;;22.27;100.00;97691.09;4969572;28;20052;-78
2023/05/05 09:47:50;;;;;;;2.20;0.50;;;22.50;98.70;;;21.84;100.00;97692.16;4985903;28;20105;-79
2023/05/05 09:50:24;;;;;;;2.30;0.50;;;22.80;99.70;;;22.03;100.00;97694.03;4985336;28;20062;-78
2023/05/05 09:52:56;;;;;;;2.30;0.80;;;22.70;99.30;;;21.68;100.00;97687.38;4960386;28;20142;-78
2023/05/05 09:55:24;;;;;;;2.90;0.73;;;22.40;99.90;;;22.05;100.00;97694.75;4969547;28;20170;-78
2023/05/05 09:57:52;;;;;;;2.15;0.70;;;22.10;99.50;;;22.61;100.00;97677.50;4968562;28;20049;-77
2023/05/05 10:00:20;;;;;;;2.17;0.70;;;22.20;99.00;;;21.92;100.00;97681.78;4957912;28;20046;-78
2023/05/05 10:02:47;;;;;;;2.28;0.60;;;22.30;99.90;;;21.94;100.00;97682.50;4953592;28;20043;-77
2023/05/05 10:05:17;;;;;;;2.13;0.50;;;22.20;99.90;;;23.06;100.00;97679.56;4965674;28;20087;-78
2023/05/05 10:07:46;;;;;;;2.95;0.60;;;22.30;99.40;;;23.09;100.00;97676.66;4963925;28;20590;-78
2023/05/05 10:10:16;;;;;;;2.65;0.50;;;22.80;99.90;;;23.71;100.00;97675.22;4967074;28;20074;-79
2023/05/05 10:12:46;;;;;;;3.47;0.55;;;23.20;99.60;;;23.29;100.00;97677.47;4934995;28;20102;-78
2023/05/05 10:15:16;;;;;;;2.80;0.60;;;23.50;98.00;;;23.52;100.00;97675.31;4965076;28;20051;-76
2023/05/05 10:17:48;;;;;;;2.58;0.50;;;23.90;98.80;;;23.37;100.00;97666.97;4970647;28;20098;-79
2023/05/05 10:20:36;;;;;;;1.77;0.70;;;23.60;97.80;;;23.25;100.00;97668.97;4960936;28;20054;-78
2023/05/05 10:23:07;;;;;;;3.78;0.75;;;23.50;98.30;;;22.82;100.00;97672.06;4967025;28;20070;-79
2023/05/05 10:25:42;;;;;;;2.72;0.90;;;23.40;98.60;;;22.01;100.00;97688.03;4968789;28;20074;-78